Beallsville, OH (43716)

5:11 AM EDT on July 06, 2015 (GMT -0400)
Jerusalem | | Change Station
CLOSE
Current Station
Personal Weather Station
Location: Jerusalem, OH
Elevation: 1253 ft
Nearby Weather Stations

Elev 1253 ft 39.86 °N, 81.11 °W | Updated 13 seconds ago

Overcast
Overcast
69.3 °F
Feels Like 69.3 °F
N
0.0
Wind Variable Wind from SSW
Gusts 2.0 mph

Today
High -- | Low -- °F
--% Chance of Precip.
Yesterday
High -- | Low -- °F
Precip. -- in
6:01 AM 8:55 PM
Waning Gibbous, 77% visible
Pressure 30.03 in
Visibility 10.0 miles
Clouds Overcast 12000 ft
Dew Point 67 °F
Humidity 92%
Rainfall 0.00 in
Snow Depth Not available.
UV 0 out of 12
Pollen 3.30 out of 12
Air Quality Not available.
Flu Activity Not available.
METAR KHLG 060853Z AUTO 10005KT 10SM OVC120 21/18 A3005 RMK AO2 SLP169 T02110183 56006

More Conditions Fewer Conditions

Pressure 30.03 in
Visibility 10.0 miles
Clouds Overcast 12000 ft
Dew Point 67 °F
Humidity 92%
Rainfall 0.00 in
Snow Depth Not available.
UV 0 out of 12
Pollen 3.30 out of 12
Air Quality Not available.
Flu Activity Not available.
METAR KHLG 060853Z AUTO 10005KT 10SM OVC120 21/18 A3005 RMK AO2 SLP169 T02110183 56006

More Conditions Fewer Conditions

10-Day Weather Forecast

×

Almanac

Astronomy

Jul. 06, 2015 Rise Set
Actual Time
Civil Twilight
Nautical Twilight
Astronomical Twilight
Moon
Length of Visible Light
Length of Day
Tomorrow will be .
, % of the Moon is Illuminated

Today's Extremes

State Highs State Lows

Community

WunderPhotos

Upload Photos

1,835,520 photos uploaded!

WunderBlogs® & News

Nearby

Air Quality

  Air Quality AQ Index Pollutant
Not available.

Snow Depth

Station Depth Elevation

Earthquake Activity

City Distance Mag. Time & Date
Minimum magnitude displayed is 2.5.

Coastal Water Temperatures

Place Temperature

Stations

Nearby Weather Stations

Station Location Temp. Windchill Dew Point Humidity Wind Precip. Elev Updated Type